createdAt,value
2017-11-17T00:01:58.553Z,4.20
2017-11-17T00:04:26.005Z,4.00
2017-11-17T00:06:53.828Z,4.10
2017-11-17T00:09:22.039Z,4.10
2017-11-17T00:11:49.504Z,4.10
2017-11-17T00:14:16.961Z,4.10
2017-11-17T00:16:44.409Z,4.00
2017-11-17T00:19:11.864Z,3.90
2017-11-17T00:21:39.329Z,3.90
2017-11-17T00:24:06.762Z,4.00
2017-11-17T00:26:35.013Z,4.00
2017-11-17T00:29:02.455Z,4.00
2017-11-17T00:31:29.901Z,4.20
2017-11-17T00:33:58.167Z,4.10
2017-11-17T00:36:26.297Z,4.10
2017-11-17T00:38:53.737Z,4.10
2017-11-17T00:41:21.190Z,4.10
2017-11-17T00:43:48.722Z,4.10
2017-11-17T00:46:16.171Z,4.10
2017-11-17T00:48:43.630Z,4.20
2017-11-17T00:51:11.082Z,4.10
2017-11-17T00:53:38.549Z,4.10
2017-11-17T00:56:06.003Z,4.10
2017-11-17T00:58:37.321Z,4.00
2017-11-17T01:01:04.771Z,4.00
2017-11-17T01:03:32.229Z,4.10
2017-11-17T01:05:59.695Z,4.10
2017-11-17T01:08:27.252Z,4.10
2017-11-17T01:10:55.472Z,4.10
2017-11-17T01:13:22.913Z,4.10
2017-11-17T01:15:51.138Z,4.00
2017-11-17T01:18:18.597Z,4.00
2017-11-17T01:20:46.481Z,4.00
2017-11-17T01:23:15.588Z,4.10
2017-11-17T01:25:43.094Z,4.10
2017-11-17T01:28:10.939Z,4.10
2017-11-17T01:30:44.606Z,4.20
2017-11-17T01:33:12.095Z,4.10
2017-11-17T01:35:39.656Z,4.10
2017-11-17T01:38:07.217Z,4.10
2017-11-17T02:02:18.483Z,3.90
2017-11-17T02:04:45.945Z,3.90
2017-11-17T02:07:13.388Z,4.00
2017-11-17T02:09:40.862Z,3.90
2017-11-17T02:12:08.308Z,3.90
2017-11-17T02:14:36.527Z,3.90
2017-11-17T02:17:03.975Z,3.90
2017-11-17T02:19:31.459Z,3.90
2017-11-17T02:21:58.916Z,3.90
2017-11-17T02:24:26.390Z,3.90
2017-11-17T02:26:54.639Z,3.90
2017-11-17T02:29:22.077Z,3.90
2017-11-17T02:31:49.558Z,3.90
2017-11-17T02:34:16.996Z,3.90
2017-11-17T02:36:45.237Z,4.00
2017-11-17T02:39:12.675Z,3.90
2017-11-17T02:41:40.170Z,4.00
2017-11-17T02:44:07.606Z,4.10
2017-11-17T02:46:36.661Z,4.00
2017-11-17T02:49:04.142Z,4.00
2017-11-17T02:51:31.590Z,4.00
2017-11-17T02:53:59.052Z,4.00
2017-11-17T02:56:27.271Z,3.90
2017-11-17T02:58:54.734Z,3.90
2017-11-17T03:01:22.165Z,3.90
2017-11-17T03:03:50.503Z,3.90
2017-11-17T03:06:17.979Z,3.90
2017-11-17T03:08:45.445Z,3.90
2017-11-17T03:11:13.663Z,4.00
2017-11-17T03:13:41.124Z,4.00
2017-11-17T03:16:08.553Z,4.00
2017-11-17T03:18:36.023Z,4.00
2017-11-17T03:21:03.489Z,4.00
2017-11-17T03:23:31.098Z,4.10
2017-11-17T03:25:58.544Z,4.10
2017-11-17T03:28:26.070Z,4.10
2017-11-17T03:30:53.585Z,4.00
2017-11-17T03:33:21.069Z,3.90
2017-11-17T03:35:48.536Z,3.90
2017-11-17T03:38:16.705Z,3.90
2017-11-17T03:40:44.169Z,3.80
2017-11-17T03:43:11.639Z,3.80
2017-11-17T03:45:39.119Z,3.80
2017-11-17T03:48:06.632Z,3.80
2017-11-17T03:50:34.099Z,3.90
2017-11-17T03:53:01.541Z,3.90
2017-11-17T03:55:29.002Z,3.90
2017-11-17T03:57:57.222Z,3.90
2017-11-17T04:00:28.611Z,3.90
2017-11-17T04:02:56.065Z,3.90
2017-11-17T04:05:23.531Z,4.00
2017-11-17T04:07:50.977Z,4.10
2017-11-17T04:10:19.203Z,4.10
2017-11-17T04:12:46.643Z,4.10
2017-11-17T04:15:14.875Z,4.30
2017-11-17T04:17:42.903Z,4.30
2017-11-17T04:20:10.332Z,4.30
2017-11-17T04:22:37.788Z,4.30
2017-11-17T04:25:05.248Z,4.30
2017-11-17T04:27:33.476Z,4.10
2017-11-17T04:30:01.032Z,4.10
2017-11-17T04:32:29.275Z,4.00
2017-11-17T04:34:56.742Z,4.00
2017-11-17T04:37:24.205Z,3.90
2017-11-17T04:39:51.650Z,3.90
2017-11-17T04:42:19.097Z,4.00
2017-11-17T04:44:50.570Z,4.00
2017-11-17T04:47:18.789Z,4.00
2017-11-17T04:49:46.266Z,4.00
2017-11-17T04:52:13.734Z,4.10
2017-11-17T04:54:41.738Z,4.00
2017-11-17T04:57:09.177Z,4.00
2017-11-17T04:59:37.515Z,4.00
2017-11-17T05:02:05.017Z,4.00
2017-11-17T05:04:32.517Z,4.10
2017-11-17T05:07:00.846Z,4.10
2017-11-17T05:09:28.310Z,4.00
2017-11-17T05:11:55.788Z,4.10
2017-11-17T05:14:23.315Z,4.10
2017-11-17T05:16:50.836Z,4.10
2017-11-17T05:19:18.311Z,4.10
2017-11-17T05:21:45.774Z,4.00
2017-11-17T05:24:13.978Z,4.00
2017-11-17T05:26:41.466Z,4.00
2017-11-17T05:29:08.920Z,4.10
2017-11-17T05:31:37.145Z,4.00
2017-11-17T05:34:04.639Z,4.00
2017-11-17T05:36:32.972Z,4.00
2017-11-17T05:39:01.202Z,4.00
2017-11-17T05:41:28.669Z,4.00
2017-11-17T05:43:56.139Z,4.00
2017-11-17T05:46:23.581Z,4.00
2017-11-17T05:48:51.809Z,4.00
2017-11-17T05:51:19.270Z,4.00
2017-11-17T05:53:46.798Z,4.00
2017-11-17T05:56:14.253Z,4.00
2017-11-17T05:58:41.708Z,4.00
2017-11-17T06:01:09.179Z,3.90
2017-11-17T06:03:36.657Z,3.90
2017-11-17T06:06:04.155Z,3.90
2017-11-17T06:08:31.608Z,3.90
2017-11-17T06:10:59.081Z,3.90
2017-11-17T06:13:26.560Z,3.90
2017-11-17T06:15:54.024Z,3.90
2017-11-17T06:18:21.475Z,4.00
2017-11-17T06:20:50.732Z,4.00
2017-11-17T06:23:18.177Z,4.00
2017-11-17T06:25:46.404Z,4.00
2017-11-17T06:28:13.855Z,4.00
2017-11-17T06:30:41.325Z,4.10
2017-11-17T06:33:08.772Z,4.20
2017-11-17T06:35:36.230Z,4.20
2017-11-17T06:38:03.712Z,4.10
2017-11-17T06:40:31.139Z,4.00
2017-11-17T06:42:59.216Z,4.10
2017-11-17T06:45:26.701Z,4.00
2017-11-17T06:47:54.157Z,4.00
2017-11-17T06:50:22.373Z,4.00
2017-11-17T06:52:49.846Z,4.00
2017-11-17T06:55:17.295Z,4.20
2017-11-17T06:57:44.757Z,4.20
2017-11-17T07:00:12.980Z,4.20
2017-11-17T07:02:40.424Z,4.20
2017-11-17T07:05:08.653Z,4.30
2017-11-17T07:07:36.107Z,4.30
2017-11-17T07:10:03.608Z,4.20
2017-11-17T07:12:31.081Z,4.30
2017-11-17T07:14:58.560Z,4.40
2017-11-17T07:17:26.034Z,4.40
2017-11-17T07:19:53.778Z,4.30
2017-11-17T07:22:21.233Z,4.30
2017-11-17T07:24:48.730Z,4.40
2017-11-17T07:27:17.016Z,4.40
2017-11-17T07:29:45.265Z,4.40
2017-11-17T07:32:12.769Z,4.40
2017-11-17T07:34:40.241Z,4.30
2017-11-17T07:37:07.731Z,4.30
2017-11-17T07:39:35.422Z,4.40
2017-11-17T07:42:02.917Z,4.30
2017-11-17T07:44:30.414Z,4.40
2017-11-17T07:46:57.953Z,4.30
2017-11-17T07:49:25.512Z,4.40
2017-11-17T07:51:52.973Z,4.30
2017-11-17T07:54:20.434Z,4.30
2017-11-17T07:56:47.882Z,4.20
2017-11-17T07:59:15.363Z,4.20
2017-11-17T08:01:42.827Z,4.30
2017-11-17T08:04:11.014Z,4.30
2017-11-17T08:06:38.459Z,4.30
2017-11-17T08:09:05.915Z,4.50
2017-11-17T08:11:33.402Z,4.50
2017-11-17T08:14:00.862Z,4.60
2017-11-17T08:16:28.333Z,4.70
2017-11-17T08:18:55.781Z,4.60
2017-11-17T08:21:23.236Z,4.70
2017-11-17T08:23:50.718Z,4.90
2017-11-17T08:26:18.173Z,4.90
2017-11-17T08:28:45.617Z,4.90
2017-11-17T08:31:13.073Z,5.00
2017-11-17T08:33:40.516Z,5.10
2017-11-17T08:36:07.981Z,5.10
2017-11-17T08:38:35.435Z,5.00
2017-11-17T08:41:03.664Z,4.90
2017-11-17T08:43:31.101Z,4.90
2017-11-17T08:45:59.317Z,4.90
2017-11-17T08:48:26.809Z,4.90
2017-11-17T08:50:54.857Z,5.00
2017-11-17T08:53:23.066Z,5.10
2017-11-17T08:55:50.545Z,5.00
2017-11-17T08:58:17.983Z,5.30
2017-11-17T09:00:45.454Z,5.20
2017-11-17T09:03:13.003Z,5.10
2017-11-17T09:05:45.235Z,5.10
2017-11-17T09:08:13.892Z,5.00
2017-11-17T09:10:41.409Z,5.00
2017-11-17T09:13:10.565Z,5.00
2017-11-17T09:15:38.078Z,5.00
2017-11-17T09:18:05.554Z,5.00
2017-11-17T09:20:33.034Z,5.00
2017-11-17T09:23:00.995Z,5.00
2017-11-17T09:25:29.334Z,5.10
2017-11-17T09:27:57.607Z,5.10
2017-11-17T09:30:25.157Z,5.20
2017-11-17T09:32:52.623Z,5.10
2017-11-17T09:35:20.141Z,5.10
2017-11-17T09:37:47.611Z,5.10
2017-11-17T09:40:15.669Z,5.10
2017-11-17T09:42:43.136Z,5.10
2017-11-17T09:45:11.180Z,5.10
2017-11-17T09:47:39.442Z,5.20
2017-11-17T09:50:06.908Z,5.20
2017-11-17T09:52:34.385Z,5.30
2017-11-17T09:55:01.837Z,5.30
2017-11-17T09:57:29.300Z,5.40
2017-11-17T09:59:57.522Z,5.40
2017-11-17T10:02:25.046Z,5.50
2017-11-17T10:04:53.306Z,5.50
2017-11-17T10:07:20.964Z,5.50
2017-11-17T10:09:48.433Z,5.60
2017-11-17T10:12:15.892Z,5.60
2017-11-17T10:14:43.356Z,5.50
2017-11-17T10:17:14.533Z,5.40
2017-11-17T10:19:41.997Z,5.30
2017-11-17T10:22:10.188Z,5.30
2017-11-17T10:24:37.647Z,5.20
2017-11-17T10:27:05.865Z,5.30
2017-11-17T10:29:33.682Z,5.30
2017-11-17T10:32:01.122Z,5.30
2017-11-17T10:34:28.586Z,5.20
2017-11-17T10:36:56.041Z,5.20
2017-11-17T10:39:24.248Z,5.30
2017-11-17T10:41:51.706Z,5.30
2017-11-17T10:44:19.920Z,5.20
2017-11-17T10:46:47.365Z,5.20
2017-11-17T10:49:15.611Z,5.30
2017-11-17T10:51:43.066Z,5.30
2017-11-17T10:54:10.581Z,5.30
2017-11-17T10:56:38.034Z,5.30
2017-11-17T10:59:05.502Z,5.40
2017-11-17T11:01:32.959Z,5.40
2017-11-17T11:04:00.453Z,5.50
2017-11-17T11:06:27.904Z,5.70
2017-11-17T11:08:55.379Z,5.70
2017-11-17T11:11:28.448Z,5.80
2017-11-17T11:13:55.981Z,5.80
2017-11-17T11:16:23.425Z,5.90
2017-11-17T11:18:50.901Z,5.90
2017-11-17T11:21:19.132Z,5.90
2017-11-17T11:23:46.592Z,5.90
2017-11-17T11:26:14.050Z,6.00
2017-11-17T11:28:41.494Z,6.20
2017-11-17T11:31:10.536Z,5.80
2017-11-17T11:33:37.986Z,5.80
2017-11-17T11:36:06.836Z,5.80
2017-11-17T11:38:34.334Z,5.80
2017-11-17T11:41:01.825Z,5.80
2017-11-17T11:43:29.309Z,6.00
2017-11-17T11:45:57.180Z,6.10
2017-11-17T11:48:24.661Z,6.10
2017-11-17T11:50:52.118Z,6.40
2017-11-17T11:53:19.584Z,6.70
2017-11-17T11:55:47.030Z,6.80
2017-11-17T11:58:14.502Z,6.90
2017-11-17T12:00:41.943Z,6.90
2017-11-17T12:03:09.443Z,6.80
2017-11-17T12:05:37.689Z,6.30
2017-11-17T12:08:05.152Z,6.30
2017-11-17T12:10:32.598Z,6.40
2017-11-17T12:13:00.074Z,6.40
2017-11-17T12:15:27.543Z,6.40
2017-11-17T12:17:54.965Z,6.50
2017-11-17T12:20:22.439Z,6.50
2017-11-17T12:22:49.897Z,6.30
2017-11-17T12:25:17.339Z,6.30
2017-11-17T12:27:44.817Z,6.40
2017-11-17T12:30:12.291Z,6.50
2017-11-17T12:32:39.845Z,6.50
2017-11-17T12:35:08.062Z,6.50
2017-11-17T12:37:35.641Z,6.40
2017-11-17T12:40:03.853Z,6.30
2017-11-17T12:42:31.322Z,6.30
2017-11-17T12:45:02.760Z,6.30
2017-11-17T12:47:30.983Z,6.40
2017-11-17T12:49:58.437Z,6.30
2017-11-17T12:52:25.898Z,6.40
2017-11-17T12:54:54.136Z,6.60
2017-11-17T12:57:22.362Z,6.60
2017-11-17T12:59:49.797Z,6.60
2017-11-17T13:02:17.273Z,6.60
2017-11-17T13:04:44.757Z,6.60
2017-11-17T13:07:12.189Z,6.50
2017-11-17T13:09:39.654Z,6.50
2017-11-17T13:12:07.869Z,6.80
2017-11-17T13:14:35.326Z,6.80
2017-11-17T13:17:02.788Z,6.80
2017-11-17T13:19:31.016Z,6.90
2017-11-17T13:21:59.100Z,6.90
2017-11-17T13:24:26.561Z,7.10
2017-11-17T13:27:04.503Z,7.20
2017-11-17T13:29:31.970Z,7.20
2017-11-17T13:31:59.430Z,7.30
2017-11-17T13:34:27.665Z,7.40
2017-11-17T13:36:56.076Z,7.40
2017-11-17T13:39:23.525Z,7.40
2017-11-17T13:41:50.993Z,7.30
2017-11-17T13:44:18.433Z,7.20
2017-11-17T13:46:46.677Z,7.30
2017-11-17T13:49:14.122Z,7.30
2017-11-17T13:51:41.589Z,7.30
2017-11-17T13:54:09.035Z,7.30
2017-11-17T13:56:37.086Z,7.10
2017-11-17T13:59:04.521Z,6.90
2017-11-17T14:01:31.997Z,6.90
2017-11-17T14:04:00.217Z,7.00
2017-11-17T14:06:27.658Z,7.00
2017-11-17T14:08:55.754Z,7.10
2017-11-17T14:11:23.201Z,7.20
2017-11-17T14:13:51.454Z,7.20
2017-11-17T14:16:18.894Z,7.20
2017-11-17T14:18:46.386Z,7.30
2017-11-17T14:21:13.844Z,7.20
2017-11-17T14:23:42.044Z,7.30
2017-11-17T14:26:09.523Z,7.30
2017-11-17T14:28:36.966Z,7.40
2017-11-17T14:31:05.195Z,7.30
2017-11-17T14:33:32.636Z,7.30
2017-11-17T14:36:00.873Z,7.20
2017-11-17T14:38:28.334Z,7.20
2017-11-17T14:40:55.824Z,7.20
2017-11-17T14:43:23.270Z,7.10
2017-11-17T14:45:50.730Z,7.10
2017-11-17T14:48:18.970Z,7.00
2017-11-17T14:50:46.452Z,6.90
2017-11-17T14:53:13.912Z,6.90
2017-11-17T14:55:41.434Z,7.00
2017-11-17T14:58:08.870Z,7.00
2017-11-17T15:00:36.313Z,7.00
2017-11-17T15:03:03.790Z,7.10
2017-11-17T15:05:31.228Z,7.50
2017-11-17T15:07:58.765Z,7.50
2017-11-17T15:10:26.202Z,7.70
2017-11-17T15:12:53.671Z,7.80
2017-11-17T15:15:21.865Z,7.80
2017-11-17T15:17:50.110Z,7.80
2017-11-17T15:20:17.544Z,7.80
2017-11-17T15:22:44.985Z,7.70
2017-11-17T15:25:12.467Z,7.80
2017-11-17T15:27:40.787Z,7.50
2017-11-17T15:30:08.258Z,7.50
2017-11-17T15:32:35.714Z,7.10
2017-11-17T15:35:03.224Z,7.00
2017-11-17T15:37:30.668Z,7.00
2017-11-17T15:39:58.899Z,6.70
2017-11-17T15:42:30.868Z,6.70
2017-11-17T15:44:58.553Z,6.60
2017-11-17T15:47:26.241Z,6.50
2017-11-17T15:49:54.522Z,6.40
2017-11-17T15:52:22.834Z,6.30
2017-11-17T15:54:54.320Z,6.50
2017-11-17T15:57:21.927Z,6.80
2017-11-17T15:59:49.451Z,6.80
2017-11-17T16:02:18.263Z,6.90
2017-11-17T16:04:45.752Z,6.90
2017-11-17T16:07:13.283Z,6.80
2017-11-17T16:09:40.746Z,6.90
2017-11-17T16:12:08.966Z,6.70
2017-11-17T16:14:36.408Z,6.80
2017-11-17T16:17:05.246Z,6.70
2017-11-17T16:19:32.702Z,6.70
2017-11-17T16:22:00.185Z,6.80
2017-11-17T16:24:27.645Z,6.80
2017-11-17T16:26:55.877Z,6.70
2017-11-17T16:29:24.072Z,6.70
2017-11-17T16:31:51.517Z,6.70
2017-11-17T16:34:19.586Z,6.80
2017-11-17T16:36:47.798Z,6.90
2017-11-17T16:39:15.240Z,6.80
2017-11-17T16:41:43.660Z,6.80
2017-11-17T16:44:11.102Z,6.80
2017-11-17T16:46:38.608Z,6.90
2017-11-17T16:49:06.821Z,6.90
2017-11-17T16:51:34.275Z,6.90
2017-11-17T16:54:02.561Z,6.90
2017-11-17T16:56:30.856Z,6.90
2017-11-17T16:58:59.109Z,6.80
2017-11-17T17:01:26.558Z,6.80
2017-11-17T17:03:53.998Z,6.90
2017-11-17T17:06:21.495Z,6.90
2017-11-17T17:08:48.941Z,7.00
2017-11-17T17:11:17.361Z,7.00
2017-11-17T17:13:45.271Z,7.00
2017-11-17T17:16:13.508Z,7.00
2017-11-17T17:18:41.934Z,6.90
2017-11-17T17:21:09.452Z,6.90
2017-11-17T17:23:40.855Z,6.60
2017-11-17T17:26:13.169Z,6.70
2017-11-17T17:28:40.657Z,6.60
2017-11-17T17:31:08.291Z,6.70
2017-11-17T17:33:35.821Z,6.60
2017-11-17T17:36:03.318Z,6.60
2017-11-17T17:38:32.067Z,6.60
2017-11-17T17:40:59.836Z,6.60
2017-11-17T17:43:28.115Z,6.60
2017-11-17T17:45:55.814Z,6.60
2017-11-17T17:48:23.418Z,6.70
2017-11-17T17:50:51.314Z,6.70
2017-11-17T17:53:18.893Z,6.70
2017-11-17T17:55:46.762Z,6.60
2017-11-17T17:58:16.288Z,6.60
2017-11-17T18:00:43.853Z,6.60
2017-11-17T18:03:11.440Z,6.60
2017-11-17T18:05:38.959Z,6.70
2017-11-17T18:08:06.505Z,6.70
2017-11-17T18:10:34.482Z,6.60
2017-11-17T18:13:02.598Z,6.50
2017-11-17T18:15:30.171Z,6.50
2017-11-17T18:17:57.685Z,6.60
2017-11-17T18:20:26.009Z,6.70
2017-11-17T18:22:53.482Z,6.70
2017-11-17T18:25:21.056Z,6.70
2017-11-17T18:27:49.440Z,6.70
2017-11-17T18:30:16.962Z,6.60
2017-11-17T18:32:44.441Z,6.60
2017-11-17T18:35:11.989Z,6.70
2017-11-17T18:37:40.273Z,6.50
2017-11-17T18:40:07.804Z,6.50
2017-11-17T18:42:35.489Z,6.40
2017-11-17T18:45:03.204Z,6.60
2017-11-17T18:47:31.294Z,6.70
2017-11-17T18:50:00.868Z,6.70
2017-11-17T18:52:28.421Z,6.70
2017-11-17T18:54:56.767Z,6.70
2017-11-17T18:57:24.316Z,6.80
2017-11-17T18:59:51.831Z,6.70
2017-11-17T19:02:20.144Z,6.60
2017-11-17T19:04:47.644Z,6.60
2017-11-17T19:07:15.173Z,6.60
2017-11-17T19:09:43.561Z,6.70
2017-11-17T19:12:11.796Z,6.80
2017-11-17T19:14:39.792Z,6.80
2017-11-17T19:17:07.373Z,6.80
2017-11-17T19:19:34.890Z,6.80
2017-11-17T19:22:02.407Z,6.70
2017-11-17T19:24:29.946Z,6.50
2017-11-17T19:26:57.445Z,6.60
2017-11-17T19:29:24.957Z,6.50
2017-11-17T19:31:52.472Z,6.50
2017-11-17T19:34:20.054Z,6.40
2017-11-17T19:36:48.470Z,6.60
2017-11-17T19:39:15.938Z,6.60
2017-11-17T19:41:43.478Z,6.70
2017-11-17T19:44:11.002Z,6.70
2017-11-17T19:46:38.540Z,6.70
2017-11-17T19:49:06.070Z,6.60
2017-11-17T19:51:33.618Z,6.70
2017-11-17T19:54:01.185Z,6.80
2017-11-17T19:56:28.790Z,6.70
2017-11-17T19:58:56.877Z,6.60
2017-11-17T20:01:24.425Z,6.60
2017-11-17T20:03:51.917Z,6.70
2017-11-17T20:06:19.572Z,6.60
2017-11-17T20:08:47.140Z,6.60
2017-11-17T20:11:14.765Z,6.70
2017-11-17T20:13:43.069Z,6.80
2017-11-17T20:16:10.594Z,6.80
2017-11-17T20:18:38.078Z,6.80
2017-11-17T20:21:05.815Z,6.70
2017-11-17T20:23:33.438Z,6.70
2017-11-17T20:26:01.851Z,6.80
2017-11-17T20:28:30.122Z,6.70
2017-11-17T20:30:57.658Z,6.70
2017-11-17T20:33:25.182Z,6.50
2017-11-17T20:35:52.831Z,6.40
2017-11-17T20:38:21.318Z,6.40
2017-11-17T20:40:48.853Z,6.40
2017-11-17T20:43:17.126Z,6.40
2017-11-17T20:45:45.584Z,6.40
2017-11-17T20:48:13.050Z,6.50
2017-11-17T20:50:41.337Z,6.60
2017-11-17T20:53:09.818Z,6.60
2017-11-17T20:55:41.147Z,6.60
2017-11-17T20:58:09.489Z,6.60
2017-11-17T21:00:38.196Z,6.60
2017-11-17T21:03:05.743Z,6.60
2017-11-17T21:05:33.362Z,6.60
2017-11-17T21:08:01.622Z,6.50
2017-11-17T21:10:30.235Z,6.60
2017-11-17T21:12:57.717Z,6.50
2017-11-17T21:15:25.321Z,6.50
2017-11-17T21:17:53.669Z,6.40
2017-11-17T21:20:21.306Z,6.40
2017-11-17T21:22:48.911Z,6.40
2017-11-17T21:25:16.582Z,6.30
2017-11-17T21:27:44.706Z,6.40
2017-11-17T21:30:12.236Z,6.40
2017-11-17T21:32:39.826Z,6.50
2017-11-17T21:35:09.361Z,6.40
2017-11-17T21:37:38.344Z,6.40
2017-11-17T21:40:05.933Z,6.40
2017-11-17T21:42:33.451Z,6.40
2017-11-17T21:45:00.942Z,6.30
2017-11-17T21:47:28.489Z,6.20
2017-11-17T21:49:56.963Z,6.50
2017-11-17T21:52:24.549Z,6.50
2017-11-17T21:54:52.860Z,6.80
2017-11-17T21:57:20.715Z,6.70
2017-11-17T21:59:48.330Z,6.90
2017-11-17T22:02:15.817Z,6.90
2017-11-17T22:04:43.279Z,6.80
2017-11-17T22:07:10.842Z,6.80
2017-11-17T22:09:39.110Z,6.80
2017-11-17T22:12:06.603Z,6.80
2017-11-17T22:14:34.822Z,6.80
2017-11-17T22:17:02.275Z,6.80
2017-11-17T22:19:29.872Z,6.80
2017-11-17T22:21:57.420Z,6.90
2017-11-17T22:24:24.885Z,6.90
2017-11-17T22:26:52.323Z,6.90
2017-11-17T22:29:23.992Z,6.90
2017-11-17T22:31:51.457Z,7.00
2017-11-17T22:34:18.922Z,6.80
2017-11-17T22:36:46.409Z,6.80
2017-11-17T22:39:13.876Z,6.70
2017-11-17T22:41:41.367Z,6.90
2017-11-17T22:44:08.831Z,6.90
2017-11-17T22:46:36.298Z,6.80
2017-11-17T22:49:03.764Z,6.80
2017-11-17T22:51:31.228Z,6.90
2017-11-17T22:53:59.439Z,7.00
2017-11-17T22:56:27.014Z,7.00
2017-11-17T22:58:55.017Z,7.00
2017-11-17T23:01:22.881Z,7.10
2017-11-17T23:03:51.106Z,7.10
2017-11-17T23:06:18.607Z,7.10
2017-11-17T23:08:46.187Z,7.10
2017-11-17T23:11:13.679Z,7.00
2017-11-17T23:13:41.981Z,7.00
2017-11-17T23:16:10.358Z,7.00
2017-11-17T23:18:42.271Z,7.00
2017-11-17T23:21:09.767Z,7.00
2017-11-17T23:23:37.331Z,6.80
2017-11-17T23:26:04.892Z,6.70
2017-11-17T23:28:32.438Z,6.60
2017-11-17T23:30:59.976Z,6.60
2017-11-17T23:33:27.846Z,6.60
2017-11-17T23:36:05.694Z,6.60
2017-11-17T23:38:37.258Z,6.80
2017-11-17T23:41:04.760Z,6.80
2017-11-17T23:43:32.293Z,6.70
2017-11-17T23:45:59.865Z,6.80
2017-11-17T23:48:27.439Z,6.70
2017-11-17T23:50:54.979Z,6.60
2017-11-17T23:53:23.332Z,6.80
2017-11-17T23:55:50.832Z,6.70
2017-11-17T23:58:18.277Z,6.80
